sensor_id;sensor_type;location;lat;lon;timestamp;pressure;altitude;pressure_sealevel;temperature;humidity
11542;BME280;5827;49.482;7.716;2022-12-18T00:01:29;99931.25;;;-8.91;97.57
11542;BME280;5827;49.482;7.716;2022-12-18T00:03:32;99933.97;;;-8.78;97.72
11542;BME280;5827;49.482;7.716;2022-12-18T00:05:33;99928.09;;;-8.82;98.35
11542;BME280;5827;49.482;7.716;2022-12-18T00:07:35;99928.28;;;-8.85;98.61
11542;BME280;5827;49.482;7.716;2022-12-18T00:09:37;99917.88;;;-8.85;98.49
11542;BME280;5827;49.482;7.716;2022-12-18T00:11:38;99923.00;;;-8.83;97.78
11542;BME280;5827;49.482;7.716;2022-12-18T00:13:40;99920.88;;;-8.91;97.66
11542;BME280;5827;49.482;7.716;2022-12-18T00:15:42;99932.84;;;-8.88;97.21
11542;BME280;5827;49.482;7.716;2022-12-18T00:17:46;99921.50;;;-9.02;97.56
11542;BME280;5827;49.482;7.716;2022-12-18T00:19:47;99926.72;;;-9.02;96.49
11542;BME280;5827;49.482;7.716;2022-12-18T00:21:49;99918.69;;;-9.13;96.52
11542;BME280;5827;49.482;7.716;2022-12-18T00:23:51;99925.56;;;-9.12;96.67
11542;BME280;5827;49.482;7.716;2022-12-18T00:25:53;99926.22;;;-9.08;96.36
11542;BME280;5827;49.482;7.716;2022-12-18T00:27:54;99941.41;;;-9.16;96.27
11542;BME280;5827;49.482;7.716;2022-12-18T00:29:56;99948.00;;;-9.11;95.84
11542;BME280;5827;49.482;7.716;2022-12-18T00:31:58;99948.38;;;-9.03;96.77
11542;BME280;5827;49.482;7.716;2022-12-18T00:34:01;99942.97;;;-9.28;96.37
11542;BME280;5827;49.482;7.716;2022-12-18T00:36:04;99945.72;;;-9.31;96.89
11542;BME280;5827;49.482;7.716;2022-12-18T00:38:06;99934.75;;;-9.20;98.31
11542;BME280;5827;49.482;7.716;2022-12-18T00:40:09;99943.00;;;-9.14;96.62
11542;BME280;5827;49.482;7.716;2022-12-18T00:42:11;99947.38;;;-9.30;96.71
11542;BME280;5827;49.482;7.716;2022-12-18T00:44:30;99941.31;;;-9.15;97.25
11542;BME280;5827;49.482;7.716;2022-12-18T00:46:31;99944.91;;;-9.17;96.43
11542;BME280;5827;49.482;7.716;2022-12-18T00:48:34;99948.47;;;-9.04;97.69
11542;BME280;5827;49.482;7.716;2022-12-18T00:50:37;99942.59;;;-9.22;97.78
11542;BME280;5827;49.482;7.716;2022-12-18T00:52:38;99945.78;;;-9.03;97.51
11542;BME280;5827;49.482;7.716;2022-12-18T00:54:40;99943.56;;;-8.94;96.69
11542;BME280;5827;49.482;7.716;2022-12-18T00:56:42;99944.88;;;-8.87;98.14
11542;BME280;5827;49.482;7.716;2022-12-18T00:58:43;99946.97;;;-9.08;97.51
11542;BME280;5827;49.482;7.716;2022-12-18T01:00:45;99927.72;;;-9.04;97.63
11542;BME280;5827;49.482;7.716;2022-12-18T01:02:46;99922.91;;;-8.96;97.47
11542;BME280;5827;49.482;7.716;2022-12-18T01:04:48;99923.72;;;-8.96;97.22
11542;BME280;5827;49.482;7.716;2022-12-18T01:06:51;99916.50;;;-8.90;97.10
11542;BME280;5827;49.482;7.716;2022-12-18T01:08:52;99921.03;;;-8.94;97.15
11542;BME280;5827;49.482;7.716;2022-12-18T01:10:54;99924.47;;;-8.93;96.67
11542;BME280;5827;49.482;7.716;2022-12-18T01:12:55;99930.03;;;-8.85;96.63
11542;BME280;5827;49.482;7.716;2022-12-18T01:14:57;99934.50;;;-8.87;96.06
11542;BME280;5827;49.482;7.716;2022-12-18T01:16:58;99932.75;;;-8.87;94.95
11542;BME280;5827;49.482;7.716;2022-12-18T01:19:02;99940.63;;;-8.88;95.85
11542;BME280;5827;49.482;7.716;2022-12-18T01:21:06;99936.44;;;-8.91;96.82
11542;BME280;5827;49.482;7.716;2022-12-18T01:23:09;99928.47;;;-9.02;96.07
11542;BME280;5827;49.482;7.716;2022-12-18T01:25:11;99929.38;;;-9.03;96.01
11542;BME280;5827;49.482;7.716;2022-12-18T01:27:12;99933.66;;;-9.02;95.10
11542;BME280;5827;49.482;7.716;2022-12-18T01:29:14;99937.53;;;-9.09;95.00
11542;BME280;5827;49.482;7.716;2022-12-18T01:31:20;99932.44;;;-9.11;95.57
11542;BME280;5827;49.482;7.716;2022-12-18T01:33:22;99938.19;;;-9.06;95.08
11542;BME280;5827;49.482;7.716;2022-12-18T01:35:24;99934.56;;;-9.03;95.72
11542;BME280;5827;49.482;7.716;2022-12-18T01:37:25;99931.22;;;-9.05;94.81
11542;BME280;5827;49.482;7.716;2022-12-18T01:39:28;99928.16;;;-9.12;94.62
11542;BME280;5827;49.482;7.716;2022-12-18T01:41:31;99923.75;;;-9.26;95.61
11542;BME280;5827;49.482;7.716;2022-12-18T01:43:50;99934.81;;;-9.22;95.67
11542;BME280;5827;49.482;7.716;2022-12-18T01:45:52;99946.00;;;-9.22;96.09
11542;BME280;5827;49.482;7.716;2022-12-18T01:47:55;99955.88;;;-9.12;98.36
11542;BME280;5827;49.482;7.716;2022-12-18T01:50:01;99957.56;;;-9.11;98.02
11542;BME280;5827;49.482;7.716;2022-12-18T01:52:03;99953.91;;;-9.23;96.81
11542;BME280;5827;49.482;7.716;2022-12-18T01:54:05;99950.94;;;-9.17;97.40
11542;BME280;5827;49.482;7.716;2022-12-18T01:56:08;99964.03;;;-9.04;97.15
11542;BME280;5827;49.482;7.716;2022-12-18T01:58:14;99963.50;;;-8.95;98.66
11542;BME280;5827;49.482;7.716;2022-12-18T02:00:18;99968.88;;;-8.98;99.06
11542;BME280;5827;49.482;7.716;2022-12-18T02:02:21;99967.78;;;-8.94;98.03
11542;BME280;5827;49.482;7.716;2022-12-18T02:04:24;99959.41;;;-8.99;98.56
11542;BME280;5827;49.482;7.716;2022-12-18T02:06:29;99957.94;;;-8.89;97.85
11542;BME280;5827;49.482;7.716;2022-12-18T02:08:40;99955.00;;;-8.83;98.50
11542;BME280;5827;49.482;7.716;2022-12-18T02:10:48;99952.59;;;-8.86;98.47
11542;BME280;5827;49.482;7.716;2022-12-18T02:12:57;99973.91;;;-8.81;98.64
11542;BME280;5827;49.482;7.716;2022-12-18T02:15:07;99970.09;;;-8.89;99.22
11542;BME280;5827;49.482;7.716;2022-12-18T02:17:14;99963.81;;;-8.85;99.64
11542;BME280;5827;49.482;7.716;2022-12-18T02:19:41;99961.31;;;-8.73;98.74
11542;BME280;5827;49.482;7.716;2022-12-18T02:21:51;99950.38;;;-8.78;98.79
11542;BME280;5827;49.482;7.716;2022-12-18T02:24:02;99966.31;;;-8.84;99.36
11542;BME280;5827;49.482;7.716;2022-12-18T02:26:15;99958.59;;;-8.85;98.53
11542;BME280;5827;49.482;7.716;2022-12-18T02:28:21;99957.03;;;-8.88;99.00
11542;BME280;5827;49.482;7.716;2022-12-18T02:30:26;99957.31;;;-8.92;98.05
11542;BME280;5827;49.482;7.716;2022-12-18T02:32:33;99948.09;;;-8.98;98.51
11542;BME280;5827;49.482;7.716;2022-12-18T02:34:38;99933.47;;;-8.99;98.32
11542;BME280;5827;49.482;7.716;2022-12-18T02:36:42;99927.91;;;-8.93;97.94
11542;BME280;5827;49.482;7.716;2022-12-18T02:38:46;99936.53;;;-8.92;97.74
11542;BME280;5827;49.482;7.716;2022-12-18T02:40:48;99935.44;;;-8.88;98.91
11542;BME280;5827;49.482;7.716;2022-12-18T02:42:52;99942.09;;;-8.84;99.23
11542;BME280;5827;49.482;7.716;2022-12-18T02:44:54;99936.16;;;-8.86;99.80
11542;BME280;5827;49.482;7.716;2022-12-18T02:46:55;99925.06;;;-8.88;99.77
11542;BME280;5827;49.482;7.716;2022-12-18T02:49:03;99925.22;;;-8.91;99.73
11542;BME280;5827;49.482;7.716;2022-12-18T02:51:14;99926.50;;;-8.84;99.35
11542;BME280;5827;49.482;7.716;2022-12-18T02:53:24;99924.00;;;-8.86;99.72
11542;BME280;5827;49.482;7.716;2022-12-18T02:55:34;99929.66;;;-8.93;98.42
11542;BME280;5827;49.482;7.716;2022-12-18T02:57:45;99918.53;;;-8.96;97.38
11542;BME280;5827;49.482;7.716;2022-12-18T02:59:56;99915.66;;;-9.05;96.91
11542;BME280;5827;49.482;7.716;2022-12-18T03:02:04;99919.75;;;-9.01;97.78
11542;BME280;5827;49.482;7.716;2022-12-18T03:04:10;99924.41;;;-8.92;97.41
11542;BME280;5827;49.482;7.716;2022-12-18T03:06:20;99933.28;;;-8.96;98.41
11542;BME280;5827;49.482;7.716;2022-12-18T03:08:25;99931.34;;;-8.92;97.51
11542;BME280;5827;49.482;7.716;2022-12-18T03:10:32;99930.53;;;-8.93;97.92
11542;BME280;5827;49.482;7.716;2022-12-18T03:12:37;99928.47;;;-9.02;97.87
11542;BME280;5827;49.482;7.716;2022-12-18T03:14:40;99922.69;;;-9.07;96.44
11542;BME280;5827;49.482;7.716;2022-12-18T03:16:47;99926.16;;;-8.92;98.17
11542;BME280;5827;49.482;7.716;2022-12-18T03:18:53;99921.03;;;-8.94;97.71
11542;BME280;5827;49.482;7.716;2022-12-18T03:20:58;99922.81;;;-8.94;97.46
11542;BME280;5827;49.482;7.716;2022-12-18T03:23:06;99924.41;;;-8.92;97.82
11542;BME280;5827;49.482;7.716;2022-12-18T03:25:11;99917.06;;;-9.00;98.59
11542;BME280;5827;49.482;7.716;2022-12-18T03:27:18;99913.34;;;-8.96;97.70
11542;BME280;5827;49.482;7.716;2022-12-18T03:29:24;99915.28;;;-8.99;97.17
11542;BME280;5827;49.482;7.716;2022-12-18T03:31:29;99911.13;;;-9.02;97.27
11542;BME280;5827;49.482;7.716;2022-12-18T03:33:39;99906.94;;;-8.90;97.67
11542;BME280;5827;49.482;7.716;2022-12-18T03:35:43;99912.34;;;-8.93;97.82
11542;BME280;5827;49.482;7.716;2022-12-18T03:37:45;99910.88;;;-8.83;98.23
11542;BME280;5827;49.482;7.716;2022-12-18T03:39:46;99913.53;;;-8.84;98.10
11542;BME280;5827;49.482;7.716;2022-12-18T03:41:51;99921.97;;;-8.81;98.15
11542;BME280;5827;49.482;7.716;2022-12-18T03:44:00;99917.63;;;-8.80;98.30
11542;BME280;5827;49.482;7.716;2022-12-18T03:46:07;99918.72;;;-8.84;99.34
11542;BME280;5827;49.482;7.716;2022-12-18T03:48:16;99921.03;;;-8.80;98.64
11542;BME280;5827;49.482;7.716;2022-12-18T03:50:22;99923.09;;;-8.85;98.03
11542;BME280;5827;49.482;7.716;2022-12-18T03:52:31;99926.63;;;-8.86;98.97
11542;BME280;5827;49.482;7.716;2022-12-18T03:54:36;99921.78;;;-9.06;98.78
11542;BME280;5827;49.482;7.716;2022-12-18T03:56:42;99922.13;;;-8.98;97.88
11542;BME280;5827;49.482;7.716;2022-12-18T03:58:45;99923.63;;;-8.94;99.32
11542;BME280;5827;49.482;7.716;2022-12-18T04:00:50;99917.72;;;-8.96;98.13
11542;BME280;5827;49.482;7.716;2022-12-18T04:02:55;99920.50;;;-8.85;99.59
11542;BME280;5827;49.482;7.716;2022-12-18T04:04:59;99926.78;;;-8.89;99.82
11542;BME280;5827;49.482;7.716;2022-12-18T04:07:06;99932.38;;;-8.81;100.00
11542;BME280;5827;49.482;7.716;2022-12-18T04:09:09;99919.03;;;-8.75;97.99
11542;BME280;5827;49.482;7.716;2022-12-18T04:11:11;99923.47;;;-8.77;99.02
11542;BME280;5827;49.482;7.716;2022-12-18T04:13:21;99917.06;;;-8.71;99.25
11542;BME280;5827;49.482;7.716;2022-12-18T04:15:23;99926.25;;;-8.80;99.11
11542;BME280;5827;49.482;7.716;2022-12-18T04:17:25;99919.66;;;-8.85;97.99
11542;BME280;5827;49.482;7.716;2022-12-18T04:19:26;99905.66;;;-8.97;97.65
11542;BME280;5827;49.482;7.716;2022-12-18T04:21:28;99906.88;;;-8.88;97.50
11542;BME280;5827;49.482;7.716;2022-12-18T04:23:31;99907.22;;;-8.94;97.33
11542;BME280;5827;49.482;7.716;2022-12-18T04:25:32;99899.72;;;-8.99;97.06
11542;BME280;5827;49.482;7.716;2022-12-18T04:27:34;99912.53;;;-8.96;97.13
11542;BME280;5827;49.482;7.716;2022-12-18T04:29:36;99908.06;;;-8.94;97.63
11542;BME280;5827;49.482;7.716;2022-12-18T04:31:37;99909.66;;;-8.91;98.76
11542;BME280;5827;49.482;7.716;2022-12-18T04:33:39;99905.28;;;-8.91;99.58
11542;BME280;5827;49.482;7.716;2022-12-18T04:35:41;99909.09;;;-8.97;99.60
11542;BME280;5827;49.482;7.716;2022-12-18T04:37:42;99901.84;;;-8.91;98.65
11542;BME280;5827;49.482;7.716;2022-12-18T04:39:45;99903.91;;;-8.97;99.51
11542;BME280;5827;49.482;7.716;2022-12-18T04:41:47;99918.66;;;-8.97;98.58
11542;BME280;5827;49.482;7.716;2022-12-18T04:43:48;99905.66;;;-8.97;98.06
11542;BME280;5827;49.482;7.716;2022-12-18T04:45:50;99914.44;;;-9.00;98.80
11542;BME280;5827;49.482;7.716;2022-12-18T04:47:52;99911.41;;;-9.06;97.14
11542;BME280;5827;49.482;7.716;2022-12-18T04:49:53;99909.06;;;-9.25;97.59
11542;BME280;5827;49.482;7.716;2022-12-18T04:51:55;99913.38;;;-9.26;97.96
11542;BME280;5827;49.482;7.716;2022-12-18T04:53:56;99919.91;;;-9.18;96.43
11542;BME280;5827;49.482;7.716;2022-12-18T04:56:10;99923.50;;;-9.21;95.92
11542;BME280;5827;49.482;7.716;2022-12-18T04:58:12;99932.16;;;-9.20;95.86
11542;BME280;5827;49.482;7.716;2022-12-18T05:00:14;99931.28;;;-9.21;95.65
11542;BME280;5827;49.482;7.716;2022-12-18T05:02:16;99927.22;;;-9.25;95.50
11542;BME280;5827;49.482;7.716;2022-12-18T05:04:17;99920.75;;;-9.48;95.16
11542;BME280;5827;49.482;7.716;2022-12-18T05:06:19;99920.13;;;-9.37;95.17
11542;BME280;5827;49.482;7.716;2022-12-18T05:08:20;99916.34;;;-9.32;95.56
11542;BME280;5827;49.482;7.716;2022-12-18T05:10:22;99917.38;;;-9.34;95.20
11542;BME280;5827;49.482;7.716;2022-12-18T05:12:25;99911.72;;;-9.27;97.72
11542;BME280;5827;49.482;7.716;2022-12-18T05:14:26;99909.06;;;-9.25;97.07
11542;BME280;5827;49.482;7.716;2022-12-18T05:16:29;99911.06;;;-9.30;96.13
11542;BME280;5827;49.482;7.716;2022-12-18T05:18:31;99915.50;;;-9.32;96.83
11542;BME280;5827;49.482;7.716;2022-12-18T05:20:32;99905.78;;;-9.29;96.26
11542;BME280;5827;49.482;7.716;2022-12-18T05:22:34;99916.91;;;-9.27;94.97
11542;BME280;5827;49.482;7.716;2022-12-18T05:24:36;99912.25;;;-9.36;95.69
11542;BME280;5827;49.482;7.716;2022-12-18T05:26:37;99906.22;;;-9.36;94.60
11542;BME280;5827;49.482;7.716;2022-12-18T05:28:40;99911.91;;;-9.60;94.29
11542;BME280;5827;49.482;7.716;2022-12-18T05:30:42;99904.59;;;-9.53;94.38
11542;BME280;5827;49.482;7.716;2022-12-18T05:32:43;99911.22;;;-9.48;94.67
11542;BME280;5827;49.482;7.716;2022-12-18T05:34:44;99916.22;;;-9.44;93.83
11542;BME280;5827;49.482;7.716;2022-12-18T05:36:46;99914.53;;;-9.45;95.02
11542;BME280;5827;49.482;7.716;2022-12-18T05:38:48;99925.28;;;-9.52;94.26
11542;BME280;5827;49.482;7.716;2022-12-18T05:40:49;99921.94;;;-9.54;93.36
11542;BME280;5827;49.482;7.716;2022-12-18T05:42:51;99925.72;;;-9.59;94.87
11542;BME280;5827;49.482;7.716;2022-12-18T05:44:54;99933.31;;;-9.56;95.60
11542;BME280;5827;49.482;7.716;2022-12-18T05:46:56;99934.00;;;-9.53;95.82
11542;BME280;5827;49.482;7.716;2022-12-18T05:48:59;99938.25;;;-9.52;95.03
11542;BME280;5827;49.482;7.716;2022-12-18T05:51:06;99946.63;;;-9.62;95.37
11542;BME280;5827;49.482;7.716;2022-12-18T05:53:08;99941.63;;;-9.65;94.75
11542;BME280;5827;49.482;7.716;2022-12-18T05:55:10;99949.97;;;-9.60;96.52
11542;BME280;5827;49.482;7.716;2022-12-18T05:57:11;99943.81;;;-9.74;96.82
11542;BME280;5827;49.482;7.716;2022-12-18T05:59:13;99936.09;;;-9.59;96.41
11542;BME280;5827;49.482;7.716;2022-12-18T06:01:17;99946.97;;;-9.53;97.12
11542;BME280;5827;49.482;7.716;2022-12-18T06:03:19;99955.00;;;-9.57;96.31
11542;BME280;5827;49.482;7.716;2022-12-18T06:05:21;99958.25;;;-9.54;95.33
11542;BME280;5827;49.482;7.716;2022-12-18T06:07:22;99964.28;;;-9.69;96.63
11542;BME280;5827;49.482;7.716;2022-12-18T06:09:24;99951.75;;;-9.61;95.95
11542;BME280;5827;49.482;7.716;2022-12-18T06:11:26;99961.97;;;-9.74;95.84
11542;BME280;5827;49.482;7.716;2022-12-18T06:13:28;99972.50;;;-9.77;96.77
11542;BME280;5827;49.482;7.716;2022-12-18T06:15:30;99968.06;;;-9.75;95.64
11542;BME280;5827;49.482;7.716;2022-12-18T06:17:34;99979.94;;;-9.70;94.63
11542;BME280;5827;49.482;7.716;2022-12-18T06:19:35;99983.63;;;-9.75;94.00
11542;BME280;5827;49.482;7.716;2022-12-18T06:21:37;99982.88;;;-9.77;94.73
11542;BME280;5827;49.482;7.716;2022-12-18T06:23:39;99989.81;;;-9.77;94.14
11542;BME280;5827;49.482;7.716;2022-12-18T06:25:40;99996.59;;;-9.75;94.34
11542;BME280;5827;49.482;7.716;2022-12-18T06:27:42;99995.09;;;-9.79;94.07
11542;BME280;5827;49.482;7.716;2022-12-18T06:29:44;99991.72;;;-9.81;93.96
11542;BME280;5827;49.482;7.716;2022-12-18T06:31:45;99989.56;;;-9.88;92.11
11542;BME280;5827;49.482;7.716;2022-12-18T06:33:48;99986.22;;;-9.90;93.30
11542;BME280;5827;49.482;7.716;2022-12-18T06:35:50;99975.19;;;-9.94;93.10
11542;BME280;5827;49.482;7.716;2022-12-18T06:37:52;99971.09;;;-9.98;91.73
11542;BME280;5827;49.482;7.716;2022-12-18T06:39:53;99967.44;;;-9.94;92.92
11542;BME280;5827;49.482;7.716;2022-12-18T06:41:56;99974.19;;;-9.91;92.16
11542;BME280;5827;49.482;7.716;2022-12-18T06:43:58;99967.22;;;-9.91;92.43
11542;BME280;5827;49.482;7.716;2022-12-18T06:46:00;99969.50;;;-10.01;91.83
11542;BME280;5827;49.482;7.716;2022-12-18T06:48:01;99966.22;;;-10.04;92.08
11542;BME280;5827;49.482;7.716;2022-12-18T06:50:05;99974.34;;;-10.10;91.60
11542;BME280;5827;49.482;7.716;2022-12-18T06:52:07;99977.78;;;-10.10;91.28
11542;BME280;5827;49.482;7.716;2022-12-18T06:54:09;99976.00;;;-10.09;92.79
11542;BME280;5827;49.482;7.716;2022-12-18T06:56:10;99983.09;;;-10.13;92.77
11542;BME280;5827;49.482;7.716;2022-12-18T06:58:12;99979.19;;;-10.04;93.24
11542;BME280;5827;49.482;7.716;2022-12-18T07:00:14;99979.94;;;-10.34;91.40
11542;BME280;5827;49.482;7.716;2022-12-18T07:02:15;99983.69;;;-10.24;93.30
11542;BME280;5827;49.482;7.716;2022-12-18T07:04:18;99982.69;;;-10.21;91.52
11542;BME280;5827;49.482;7.716;2022-12-18T07:06:23;99981.53;;;-10.15;92.53
11542;BME280;5827;49.482;7.716;2022-12-18T07:08:24;99981.38;;;-10.12;92.12
11542;BME280;5827;49.482;7.716;2022-12-18T07:10:26;99975.66;;;-10.19;91.23
11542;BME280;5827;49.482;7.716;2022-12-18T07:12:27;99978.09;;;-10.16;90.36
11542;BME280;5827;49.482;7.716;2022-12-18T07:14:29;99983.34;;;-10.17;91.01
11542;BME280;5827;49.482;7.716;2022-12-18T07:16:30;99975.66;;;-10.19;91.09
11542;BME280;5827;49.482;7.716;2022-12-18T07:18:32;99987.31;;;-10.10;91.56
11542;BME280;5827;49.482;7.716;2022-12-18T07:20:33;99978.59;;;-10.09;91.07
11542;BME280;5827;49.482;7.716;2022-12-18T07:22:37;99988.97;;;-10.09;91.79
11542;BME280;5827;49.482;7.716;2022-12-18T07:24:38;99986.31;;;-10.08;91.06
11542;BME280;5827;49.482;7.716;2022-12-18T07:26:40;99994.16;;;-10.09;90.82
11542;BME280;5827;49.482;7.716;2022-12-18T07:28:42;99989.88;;;-10.10;92.09
11542;BME280;5827;49.482;7.716;2022-12-18T07:30:43;99997.41;;;-10.06;90.32
11542;BME280;5827;49.482;7.716;2022-12-18T07:32:45;99997.50;;;-10.07;90.46
11542;BME280;5827;49.482;7.716;2022-12-18T07:34:47;100000.34;;;-10.12;90.51
11542;BME280;5827;49.482;7.716;2022-12-18T07:36:48;99997.25;;;-10.03;90.87
11542;BME280;5827;49.482;7.716;2022-12-18T07:38:51;100002.50;;;-10.04;91.18
11542;BME280;5827;49.482;7.716;2022-12-18T07:40:53;100000.50;;;-10.15;91.13
11542;BME280;5827;49.482;7.716;2022-12-18T07:42:54;100002.41;;;-10.18;90.98
11542;BME280;5827;49.482;7.716;2022-12-18T07:44:56;100002.69;;;-10.07;90.22
11542;BME280;5827;49.482;7.716;2022-12-18T07:46:57;100003.28;;;-10.02;90.32
11542;BME280;5827;49.482;7.716;2022-12-18T07:48:59;100005.94;;;-10.04;90.75
11542;BME280;5827;49.482;7.716;2022-12-18T07:51:01;100015.22;;;-10.00;89.92
11542;BME280;5827;49.482;7.716;2022-12-18T07:53:04;100010.88;;;-9.99;90.51
11542;BME280;5827;49.482;7.716;2022-12-18T07:55:08;100015.16;;;-9.98;90.27
11542;BME280;5827;49.482;7.716;2022-12-18T07:57:09;100017.41;;;-9.92;90.74
11542;BME280;5827;49.482;7.716;2022-12-18T07:59:11;100026.84;;;-9.91;89.90
11542;BME280;5827;49.482;7.716;2022-12-18T08:01:13;100024.59;;;-9.81;90.17
11542;BME280;5827;49.482;7.716;2022-12-18T08:03:14;100032.22;;;-9.78;90.10
11542;BME280;5827;49.482;7.716;2022-12-18T08:05:17;100044.00;;;-9.73;91.08
11542;BME280;5827;49.482;7.716;2022-12-18T08:07:18;100046.59;;;-9.88;89.83
11542;BME280;5827;49.482;7.716;2022-12-18T08:09:20;100046.59;;;-9.88;90.38
11542;BME280;5827;49.482;7.716;2022-12-18T08:11:25;100046.94;;;-9.79;91.03
11542;BME280;5827;49.482;7.716;2022-12-18T08:13:27;100028.53;;;-9.74;91.26
11542;BME280;5827;49.482;7.716;2022-12-18T08:15:29;100017.81;;;-9.68;89.77
11542;BME280;5827;49.482;7.716;2022-12-18T08:17:31;100018.16;;;-9.58;89.61
11542;BME280;5827;49.482;7.716;2022-12-18T08:19:32;100018.66;;;-9.52;90.79
11542;BME280;5827;49.482;7.716;2022-12-18T08:21:34;100014.22;;;-9.50;90.84
11542;BME280;5827;49.482;7.716;2022-12-18T08:23:35;100006.94;;;-9.43;91.23
11542;BME280;5827;49.482;7.716;2022-12-18T08:25:37;100002.59;;;-9.58;90.47
11542;BME280;5827;49.482;7.716;2022-12-18T08:27:39;99999.41;;;-9.63;91.68
11542;BME280;5827;49.482;7.716;2022-12-18T08:29:41;100002.28;;;-9.52;93.06
11542;BME280;5827;49.482;7.716;2022-12-18T08:31:42;99993.72;;;-9.54;92.46
11542;BME280;5827;49.482;7.716;2022-12-18T08:33:44;100003.31;;;-9.40;92.33
11542;BME280;5827;49.482;7.716;2022-12-18T08:35:46;99986.81;;;-9.24;92.34
11542;BME280;5827;49.482;7.716;2022-12-18T08:37:47;99991.47;;;-9.14;90.78
11542;BME280;5827;49.482;7.716;2022-12-18T08:39:49;99989.28;;;-9.06;91.78
11542;BME280;5827;49.482;7.716;2022-12-18T08:41:50;99983.44;;;-8.96;91.27
11542;BME280;5827;49.482;7.716;2022-12-18T08:44:08;99985.78;;;-8.91;89.82
11542;BME280;5827;49.482;7.716;2022-12-18T08:46:32;99971.19;;;-8.93;90.47
11542;BME280;5827;49.482;7.716;2022-12-18T08:48:35;99970.03;;;-8.88;90.99
11542;BME280;5827;49.482;7.716;2022-12-18T08:50:37;99971.31;;;-8.81;90.96
11542;BME280;5827;49.482;7.716;2022-12-18T08:52:38;99975.69;;;-8.67;90.71
11542;BME280;5827;49.482;7.716;2022-12-18T08:54:40;99982.94;;;-8.58;90.75
11542;BME280;5827;49.482;7.716;2022-12-18T08:56:41;99973.19;;;-8.54;91.03
11542;BME280;5827;49.482;7.716;2022-12-18T08:58:43;99981.28;;;-8.45;91.85
11542;BME280;5827;49.482;7.716;2022-12-18T09:00:46;99991.66;;;-8.59;92.37
11542;BME280;5827;49.482;7.716;2022-12-18T09:02:47;99996.69;;;-8.41;92.01
11542;BME280;5827;49.482;7.716;2022-12-18T09:04:49;99988.47;;;-8.35;92.00
11542;BME280;5827;49.482;7.716;2022-12-18T09:06:51;100001.94;;;-8.29;91.21
11542;BME280;5827;49.482;7.716;2022-12-18T09:08:52;100011.88;;;-8.21;92.06
11542;BME280;5827;49.482;7.716;2022-12-18T09:10:54;100014.00;;;-8.13;92.42
11542;BME280;5827;49.482;7.716;2022-12-18T09:12:56;100002.84;;;-8.30;92.74
11542;BME280;5827;49.482;7.716;2022-12-18T09:14:57;99991.53;;;-8.14;93.49
11542;BME280;5827;49.482;7.716;2022-12-18T09:17:01;99997.09;;;-8.06;94.36
11542;BME280;5827;49.482;7.716;2022-12-18T09:19:03;99996.50;;;-7.97;95.20
11542;BME280;5827;49.482;7.716;2022-12-18T09:21:10;100003.84;;;-7.89;94.91
11542;BME280;5827;49.482;7.716;2022-12-18T09:23:12;100011.06;;;-7.80;95.96
11542;BME280;5827;49.482;7.716;2022-12-18T09:25:14;100013.09;;;-7.71;95.61
11542;BME280;5827;49.482;7.716;2022-12-18T09:27:16;100018.56;;;-7.61;95.56
11542;BME280;5827;49.482;7.716;2022-12-18T09:29:18;100023.94;;;-7.50;95.22
11542;BME280;5827;49.482;7.716;2022-12-18T09:31:20;100024.66;;;-7.48;95.44
11542;BME280;5827;49.482;7.716;2022-12-18T09:33:24;100018.84;;;-7.39;96.11
11542;BME280;5827;49.482;7.716;2022-12-18T09:35:26;100021.28;;;-7.36;95.86
11542;BME280;5827;49.482;7.716;2022-12-18T09:37:28;100034.25;;;-7.22;96.03
11542;BME280;5827;49.482;7.716;2022-12-18T09:39:29;100030.50;;;-7.18;96.24
11542;BME280;5827;49.482;7.716;2022-12-18T09:41:40;100032.63;;;-7.10;96.08
11542;BME280;5827;49.482;7.716;2022-12-18T09:43:45;100036.38;;;-7.01;95.92
11542;BME280;5827;49.482;7.716;2022-12-18T09:45:51;100035.47;;;-7.00;95.92
11542;BME280;5827;49.482;7.716;2022-12-18T09:47:55;100036.50;;;-6.90;96.60
11542;BME280;5827;49.482;7.716;2022-12-18T09:50:02;100031.72;;;-6.83;96.87
11542;BME280;5827;49.482;7.716;2022-12-18T09:52:10;100035.72;;;-6.65;97.88
11542;BME280;5827;49.482;7.716;2022-12-18T09:54:17;100037.38;;;-6.51;98.03
11542;BME280;5827;49.482;7.716;2022-12-18T09:56:20;100041.47;;;-6.47;98.05
11542;BME280;5827;49.482;7.716;2022-12-18T09:58:27;100035.31;;;-6.33;98.16
11542;BME280;5827;49.482;7.716;2022-12-18T10:00:30;100028.13;;;-6.30;98.31
11542;BME280;5827;49.482;7.716;2022-12-18T10:02:32;100029.91;;;-6.18;99.01
11542;BME280;5827;49.482;7.716;2022-12-18T10:04:33;100023.22;;;-6.09;98.77
11542;BME280;5827;49.482;7.716;2022-12-18T10:06:41;100010.13;;;-5.96;99.81
11542;BME280;5827;49.482;7.716;2022-12-18T10:08:49;100004.00;;;-5.95;99.57
11542;BME280;5827;49.482;7.716;2022-12-18T10:10:54;99997.31;;;-5.99;100.00
11542;BME280;5827;49.482;7.716;2022-12-18T10:13:03;99992.72;;;-5.72;100.00
11542;BME280;5827;49.482;7.716;2022-12-18T10:15:15;99992.34;;;-5.54;100.00
11542;BME280;5827;49.482;7.716;2022-12-18T10:17:27;99990.41;;;-5.40;100.00
11542;BME280;5827;49.482;7.716;2022-12-18T10:19:38;99995.84;;;-5.19;100.00
11542;BME280;5827;49.482;7.716;2022-12-18T10:21:46;99981.16;;;-5.08;100.00
11542;BME280;5827;49.482;7.716;2022-12-18T10:23:58;99968.09;;;-5.08;100.00
11542;BME280;5827;49.482;7.716;2022-12-18T10:26:04;99971.91;;;-5.01;100.00
11542;BME280;5827;49.482;7.716;2022-12-18T10:28:10;99987.03;;;-4.82;100.00
11542;BME280;5827;49.482;7.716;2022-12-18T10:30:14;99987.19;;;-4.73;99.86
11542;BME280;5827;49.482;7.716;2022-12-18T10:32:19;99977.69;;;-4.74;99.42
11542;BME280;5827;49.482;7.716;2022-12-18T10:34:21;99987.44;;;-4.76;100.00
11542;BME280;5827;49.482;7.716;2022-12-18T10:36:23;99980.78;;;-4.69;100.00
11542;BME280;5827;49.482;7.716;2022-12-18T10:38:27;99980.56;;;-4.54;100.00
11542;BME280;5827;49.482;7.716;2022-12-18T10:40:30;99977.00;;;-4.42;99.46
11542;BME280;5827;49.482;7.716;2022-12-18T10:42:32;99988.91;;;-4.38;99.53
11542;BME280;5827;49.482;7.716;2022-12-18T10:44:33;99995.69;;;-4.47;98.95
11542;BME280;5827;49.482;7.716;2022-12-18T10:46:35;100008.75;;;-4.36;98.18
11542;BME280;5827;49.482;7.716;2022-12-18T10:54:38;100012.34;;;-4.14;98.35
11542;BME280;5827;49.482;7.716;2022-12-18T10:56:41;100005.94;;;-4.10;97.74
11542;BME280;5827;49.482;7.716;2022-12-18T10:58:55;100006.06;;;-4.12;96.79
11542;BME280;5827;49.482;7.716;2022-12-18T11:01:07;99992.72;;;-4.09;96.65
11542;BME280;5827;49.482;7.716;2022-12-18T11:03:30;99982.63;;;-4.02;97.03
11542;BME280;5827;49.482;7.716;2022-12-18T11:05:33;99970.72;;;-4.17;97.62
11542;BME280;5827;49.482;7.716;2022-12-18T11:07:58;99958.09;;;-4.46;98.79